Time;durP1;ratioP1;P1;durP2;ratioP2;P2;SDS_P1;SDS_P2;PMS_P1;PMS_P2;Temp;Humidity;BMP_temperature;BMP_pressure;BME280_temperature;BME280_humidity;BME280_pressure;Samples;Min_cycle;Max_cycle;Signal;HPM_P1;HPM_P2
2021/07/16 00:01:49;;;;;;;22.48;8.57;;;;;;;16.86;99.97;101566.34;5030612;28;20049;-67
2021/07/16 00:04:17;;;;;;;18.38;8.85;;;;;;;16.87;99.95;101573.34;5014140;28;20058;-68
2021/07/16 00:06:43;;;;;;;23.70;8.82;;;;;;;16.83;99.59;101576.97;5050622;22;20106;-72
2021/07/16 00:09:09;;;;;;;22.75;8.32;;;;;;;16.81;99.62;101570.91;5039177;28;20449;-72
2021/07/16 00:11:36;;;;;;;26.85;8.30;;;;;;;16.81;99.86;101573.56;5043056;28;20540;-70
2021/07/16 00:14:04;;;;;;;23.08;9.73;;;;;;;16.78;99.87;101583.25;5053548;28;20060;-72
2021/07/16 00:16:31;;;;;;;24.48;8.65;;;;;;;16.80;99.61;101583.19;5034056;28;20057;-72
2021/07/16 00:18:57;;;;;;;22.92;8.57;;;;;;;16.81;99.50;101581.44;5036259;28;20045;-71
2021/07/16 00:21:25;;;;;;;23.00;9.48;;;;;;;16.83;99.27;101587.47;5038364;28;20053;-71
2021/07/16 00:23:52;;;;;;;23.63;8.98;;;;;;;16.73;99.73;101586.91;5037647;28;20045;-70
2021/07/16 00:26:18;;;;;;;22.30;8.85;;;;;;;16.70;99.78;101585.25;5040798;28;20044;-72
2021/07/16 00:28:45;;;;;;;19.67;8.45;;;;;;;16.75;99.34;101582.47;5046367;28;20099;-71
2021/07/16 00:31:12;;;;;;;22.73;8.93;;;;;;;16.72;99.41;101588.66;5041876;28;20052;-72
2021/07/16 00:33:39;;;;;;;25.23;8.50;;;;;;;16.76;99.44;101582.41;5048541;28;20071;-70
2021/07/16 00:36:06;;;;;;;18.27;8.50;;;;;;;16.82;99.58;101583.16;5039235;28;20130;-72
2021/07/16 00:38:34;;;;;;;29.02;8.50;;;;;;;16.94;98.23;101586.28;5052107;28;20171;-72
2021/07/16 00:41:00;;;;;;;22.73;9.35;;;;;;;16.89;97.72;101585.50;5048034;28;20587;-71
2021/07/16 00:43:27;;;;;;;26.77;8.82;;;;;;;16.84;97.82;101582.19;5045873;28;20099;-73
2021/07/16 00:45:53;;;;;;;23.20;8.27;;;;;;;16.83;97.65;101579.59;5043842;28;20502;-69
2021/07/16 00:48:20;;;;;;;26.52;8.90;;;;;;;16.71;98.28;101579.09;5048862;28;21018;-72
2021/07/16 00:50:48;;;;;;;18.40;8.30;;;;;;;16.69;98.53;101580.91;5046010;28;20564;-72
2021/07/16 00:53:18;;;;;;;18.05;7.72;;;;;;;16.69;98.93;101598.41;5050564;28;20048;-72
2021/07/16 00:55:47;;;;;;;25.40;9.25;;;;;;;16.75;98.82;101604.34;5039043;28;20048;-72
2021/07/16 00:58:15;;;;;;;24.02;8.18;;;;;;;16.70;98.41;101606.28;5042630;28;20107;-72
2021/07/16 01:00:42;;;;;;;19.52;8.95;;;;;;;16.66;98.60;101604.63;5038162;28;20049;-72
2021/07/16 01:03:09;;;;;;;27.27;9.02;;;;;;;16.65;98.57;101602.91;5040878;28;20096;-72
2021/07/16 01:05:36;;;;;;;27.88;9.80;;;;;;;16.66;98.73;101599.38;5044282;28;20449;-72
2021/07/16 01:08:04;;;;;;;72.07;45.22;;;;;;;16.81;98.72;101611.19;5045016;28;20139;-68
2021/07/16 01:10:31;;;;;;;84.60;53.60;;;;;;;16.81;98.71;101607.69;5049789;28;20602;-68
2021/07/16 01:12:59;;;;;;;22.13;9.02;;;;;;;16.78;98.10;101606.00;5041133;28;20056;-71
2021/07/16 01:15:27;;;;;;;24.88;8.80;;;;;;;16.72;97.67;101608.84;5043137;28;20045;-72
2021/07/16 01:17:55;;;;;;;31.17;8.98;;;;;;;16.60;98.08;101603.06;5037856;28;20052;-72
2021/07/16 01:20:23;;;;;;;19.80;9.05;;;;;;;16.58;98.36;101614.53;5040966;28;20053;-72
2021/07/16 01:22:52;;;;;;;24.38;9.32;;;;;;;16.51;98.80;101605.13;5051399;28;20160;-72
2021/07/16 01:25:22;;;;;;;27.00;8.80;;;;;;;16.48;98.66;101606.91;5047786;28;20564;-72
2021/07/16 01:27:50;;;;;;;22.17;8.10;;;;;;;16.48;98.94;101606.91;5039815;28;20037;-71
2021/07/16 01:30:21;;;;;;;23.38;9.00;;;;;;;16.49;98.73;101607.78;5043539;28;20103;-72
2021/07/16 01:32:49;;;;;;;25.55;8.48;;;;;;;16.55;98.56;101602.34;5044323;28;20110;-72
2021/07/16 01:35:17;;;;;;;25.25;7.97;;;;;;;16.53;97.98;101598.03;5042530;28;20076;-72
2021/07/16 01:37:44;;;;;;;26.85;8.18;;;;;;;16.46;98.21;101603.47;5041320;28;20132;-72
2021/07/16 01:40:14;;;;;;;25.02;8.73;;;;;;;16.41;97.80;101600.16;5049402;28;20076;-72
2021/07/16 01:42:44;;;;;;;20.63;8.23;;;;;;;16.40;98.17;101603.66;5039171;28;20041;-71
2021/07/16 01:45:14;;;;;;;28.00;8.88;;;;;;;16.36;98.38;101599.41;5037747;28;20049;-72
2021/07/16 01:47:44;;;;;;;22.10;7.43;;;;;;;16.38;98.25;101599.34;5039076;28;20068;-73
2021/07/16 01:50:11;;;;;;;19.45;7.60;;;;;;;16.29;98.40;101598.72;5042350;28;20045;-72
2021/07/16 01:52:38;;;;;;;26.70;8.30;;;;;;;16.26;98.27;101593.59;5048449;28;20049;-74
2021/07/16 01:55:05;;;;;;;23.73;7.50;;;;;;;16.24;98.38;101599.75;5051039;28;20053;-72
2021/07/16 01:57:31;;;;;;;24.33;8.15;;;;;;;16.28;98.67;101593.53;5046758;28;20052;-72
2021/07/16 01:59:59;;;;;;;22.55;6.90;;;;;;;16.29;97.84;101603.13;5037016;28;20552;-72
2021/07/16 02:02:25;;;;;;;17.83;7.60;;;;;;;16.17;97.98;101599.06;5046056;28;20106;-72
2021/07/16 02:04:52;;;;;;;20.00;7.05;;;;;;;16.23;97.75;101600.66;5036603;28;20053;-72
2021/07/16 02:07:18;;;;;;;22.75;7.30;;;;;;;16.21;97.68;101597.25;5046865;28;20044;-73
2021/07/16 02:09:44;;;;;;;23.35;7.13;;;;;;;16.26;97.31;101603.19;5045571;28;20048;-73
2021/07/16 02:12:11;;;;;;;21.80;6.93;;;;;;;16.19;97.41;101606.91;5049187;28;20099;-73
2021/07/16 02:14:37;;;;;;;14.77;7.85;;;;;;;16.17;97.30;101605.19;5046993;28;20585;-72
2021/07/16 02:17:05;;;;;;;22.55;8.30;;;;;;;16.18;97.43;101608.66;5043964;28;20048;-73
2021/07/16 02:19:34;;;;;;;18.30;6.38;;;;;;;16.17;97.49;101606.94;5038252;28;20048;-72
2021/07/16 02:22:04;;;;;;;24.70;6.88;;;;;;;16.12;97.33;101609.69;5045629;28;20570;-73
2021/07/16 02:24:30;;;;;;;22.23;7.60;;;;;;;16.08;97.62;101601.97;5044667;28;20053;-73
2021/07/16 02:26:57;;;;;;;15.35;6.63;;;;;;;16.15;97.43;101609.63;5042232;28;20052;-72
2021/07/16 02:29:23;;;;;;;23.42;7.63;;;;;;;16.15;96.97;101611.41;5042687;28;20045;-71
2021/07/16 02:31:51;;;;;;;26.67;8.00;;;;;;;16.07;96.74;101611.59;5043131;28;20061;-73
2021/07/16 02:34:18;;;;;;;17.98;6.05;;;;;;;16.09;96.40;101603.69;5044546;28;20135;-72
2021/07/16 02:36:45;;;;;;;22.05;6.15;;;;;;;16.06;96.25;101612.50;5036658;28;20131;-72
2021/07/16 02:39:11;;;;;;;18.17;7.45;;;;;;;16.07;96.65;101616.84;5042666;28;20080;-72
2021/07/16 02:41:38;;;;;;;27.92;7.70;;;;;;;16.08;96.54;101609.84;5047616;28;20123;-72
2021/07/16 02:44:05;;;;;;;18.73;6.68;;;;;;;16.05;96.71;101613.41;5051809;28;20057;-72
2021/07/16 02:46:31;;;;;;;18.73;7.28;;;;;;;16.07;96.22;101616.84;5042784;28;20049;-72
2021/07/16 02:48:57;;;;;;;25.08;7.45;;;;;;;16.04;96.60;101622.19;5036617;28;20449;-73
2021/07/16 02:51:25;;;;;;;22.92;7.05;;;;;;;16.01;96.23;101620.50;5045854;28;20049;-72
2021/07/16 02:53:52;;;;;;;18.02;7.10;;;;;;;15.97;96.34;101625.91;5048068;28;20057;-72
2021/07/16 02:56:18;;;;;;;18.30;6.70;;;;;;;15.90;96.73;101621.72;5048603;28;20053;-72
2021/07/16 02:58:44;;;;;;;17.63;7.47;;;;;;;15.93;96.63;101627.75;5041255;28;20057;-72
2021/07/16 03:01:11;;;;;;;27.50;6.72;;;;;;;15.94;96.80;101623.34;5042573;28;20064;-72
2021/07/16 03:03:37;;;;;;;20.27;6.80;;;;;;;15.93;96.62;101630.38;5034593;28;20053;-71
2021/07/16 03:06:04;;;;;;;16.35;6.85;;;;;;;15.94;96.65;101636.47;5039343;28;20103;-73
2021/07/16 03:08:31;;;;;;;24.50;7.10;;;;;;;15.99;96.26;101624.09;5046782;28;20542;-72
2021/07/16 03:10:58;;;;;;;20.23;7.05;;;;;;;16.00;96.29;101626.66;5042853;28;20048;-72
2021/07/16 03:13:24;;;;;;;21.33;7.43;;;;;;;15.94;96.62;101632.09;5037149;28;20137;-72
2021/07/16 03:15:51;;;;;;;26.58;7.95;;;;;;;15.95;97.04;101640.81;5044420;28;20090;-72
2021/07/16 03:18:20;;;;;;;22.20;7.55;;;;;;;15.91;97.04;101634.78;5037613;28;20418;-72
2021/07/16 03:20:47;;;;;;;24.88;7.47;;;;;;;15.87;96.22;101634.91;5038464;28;20055;-72
2021/07/16 03:23:15;;;;;;;29.40;7.75;;;;;;;15.80;96.75;101640.31;5041577;28;20465;-72
2021/07/16 03:25:43;;;;;;;19.55;8.02;;;;;;;15.77;96.72;101634.28;5039067;28;20049;-72
2021/07/16 03:28:11;;;;;;;22.95;7.53;;;;;;;15.73;97.36;101638.72;5035341;28;20446;-71
2021/07/16 03:30:39;;;;;;;23.25;7.90;;;;;;;15.75;97.38;101646.56;5043185;28;20091;-72
2021/07/16 03:33:06;;;;;;;24.42;7.32;;;;;;;15.75;96.55;101641.31;5043585;28;20055;-72
2021/07/16 03:35:33;;;;;;;28.90;9.43;;;;;;;15.70;97.28;101644.06;5041821;28;20049;-72
2021/07/16 03:37:59;;;;;;;26.20;8.95;;;;;;;15.68;97.62;101643.25;5045968;28;20111;-72
2021/07/16 03:40:28;;;;;;;25.15;7.80;;;;;;;15.67;98.22;101647.63;5043720;28;20049;-72
2021/07/16 03:42:57;;;;;;;22.98;9.23;;;;;;;15.65;98.78;101653.81;5046265;28;20049;-73
2021/07/16 03:45:24;;;;;;;25.33;9.05;;;;;;;15.62;98.42;101646.03;5038568;28;20503;-73
2021/07/16 03:47:51;;;;;;;24.52;8.65;;;;;;;15.62;98.01;101652.13;5038972;28;20050;-72
2021/07/16 03:50:20;;;;;;;21.52;8.13;;;;;;;15.62;98.32;101659.16;5037239;28;20053;-72
2021/07/16 03:52:47;;;;;;;19.20;7.93;;;;;;;15.63;98.07;101659.09;5041255;28;20042;-73
2021/07/16 03:55:14;;;;;;;24.98;8.68;;;;;;;15.61;98.17;101666.13;5043585;28;20057;-73
2021/07/16 03:57:45;;;;;;;18.15;8.40;;;;;;;15.55;98.29;101656.66;5049688;28;20513;-73
2021/07/16 04:00:15;;;;;;;27.58;8.68;;;;;;;15.55;98.20;101666.31;5035733;28;20041;-73
2021/07/16 04:02:42;;;;;;;17.92;8.18;;;;;;;15.56;98.45;101665.41;5038184;28;20049;-72
2021/07/16 04:05:09;;;;;;;22.20;7.47;;;;;;;15.54;98.49;101662.81;5044419;28;20532;-72
2021/07/16 04:07:41;;;;;;;23.35;8.15;;;;;;;15.54;98.81;101669.81;5050778;28;20418;-73
2021/07/16 04:10:09;;;;;;;19.65;7.60;;;;;;;15.59;98.99;101672.34;5049771;28;20110;-73
2021/07/16 04:12:36;;;;;;;25.02;8.98;;;;;;;15.59;98.89;101674.97;5044049;28;20057;-72
2021/07/16 04:15:03;;;;;;;21.02;9.07;;;;;;;15.68;98.80;101674.72;5048256;28;20510;-73
2021/07/16 04:17:32;;;;;;;21.48;7.68;;;;;;;15.77;98.93;101682.34;5051130;28;20451;-72
2021/07/16 04:19:59;;;;;;;19.50;8.07;;;;;;;15.73;98.56;101679.84;5041958;28;20056;-71
2021/07/16 04:22:25;;;;;;;19.83;8.93;;;;;;;15.67;98.41;101679.09;5049075;28;20083;-73
2021/07/16 04:24:53;;;;;;;16.90;8.27;;;;;;;15.68;98.21;101682.59;5048481;28;20045;-73
2021/07/16 04:27:20;;;;;;;21.23;8.27;;;;;;;15.66;98.55;101689.63;5046297;28;20084;-72
2021/07/16 04:29:46;;;;;;;19.27;8.48;;;;;;;15.64;98.65;101676.56;5043231;28;20049;-72
2021/07/16 04:32:14;;;;;;;25.38;8.95;;;;;;;15.65;99.11;101680.91;5047337;28;20099;-72
2021/07/16 04:34:42;;;;;;;24.65;9.07;;;;;;;15.70;99.38;101676.41;5041145;28;20055;-72
2021/07/16 04:37:10;;;;;;;25.08;9.38;;;;;;;15.66;99.22;101695.75;5042092;28;20045;-72
2021/07/16 04:39:36;;;;;;;24.08;9.25;;;;;;;15.69;99.11;101690.41;5047649;28;20099;-72
2021/07/16 04:42:03;;;;;;;25.60;10.07;;;;;;;15.61;99.86;101691.53;5044841;28;20534;-71
2021/07/16 04:44:30;;;;;;;24.80;9.18;;;;;;;15.66;99.72;101694.88;5046341;28;20494;-72
2021/07/16 04:46:57;;;;;;;21.25;9.32;;;;;;;15.69;99.97;101693.03;5046757;28;20487;-72
2021/07/16 04:49:24;;;;;;;24.45;9.55;;;;;;;15.82;99.64;101701.44;5041895;28;20048;-72
2021/07/16 04:51:52;;;;;;;21.92;8.90;;;;;;;15.85;99.40;101703.19;5047851;28;20133;-72
2021/07/16 04:54:18;;;;;;;22.70;9.00;;;;;;;15.91;99.03;101702.16;5047869;28;20056;-73
2021/07/16 04:56:45;;;;;;;23.23;10.15;;;;;;;15.97;98.91;101704.63;5044779;28;20385;-73
2021/07/16 04:59:12;;;;;;;23.42;9.25;;;;;;;16.01;99.39;101701.88;5044404;28;20048;-73
2021/07/16 05:01:39;;;;;;;23.65;9.23;;;;;;;16.01;98.90;101715.00;5041163;28;20107;-72
2021/07/16 05:04:05;;;;;;;24.08;10.13;;;;;;;15.92;97.67;101711.75;5040909;28;20084;-72
2021/07/16 05:06:32;;;;;;;18.15;9.18;;;;;;;15.84;97.72;101714.56;5046998;28;20049;-72
2021/07/16 05:09:00;;;;;;;23.45;9.52;;;;;;;15.70;97.58;101715.75;5046184;28;20098;-72
2021/07/16 05:11:26;;;;;;;23.15;10.23;;;;;;;15.74;97.51;101707.81;5046482;28;20052;-73
2021/07/16 05:13:53;;;;;;;23.83;9.48;;;;;;;15.78;97.52;101712.94;5046495;28;20041;-72
2021/07/16 05:16:19;;;;;;;23.73;9.52;;;;;;;15.65;97.65;101716.75;5045382;28;20110;-72
2021/07/16 05:18:46;;;;;;;25.20;8.75;;;;;;;15.54;98.46;101710.00;5044463;28;20079;-71
2021/07/16 05:21:14;;;;;;;22.02;9.20;;;;;;;15.59;97.61;101720.38;5040601;28;20052;-72
2021/07/16 05:23:41;;;;;;;23.63;9.77;;;;;;;15.59;98.40;101714.28;5048830;28;20060;-72
2021/07/16 05:26:09;;;;;;;31.08;9.32;;;;;;;15.59;97.95;101719.53;5042270;28;20045;-72
2021/07/16 05:28:36;;;;;;;26.25;9.90;;;;;;;15.65;97.20;101717.63;5041652;28;20051;-72
2021/07/16 05:31:02;;;;;;;20.08;8.35;;;;;;;15.70;96.96;101717.50;5041550;28;20488;-73
2021/07/16 05:33:29;;;;;;;25.00;8.23;;;;;;;15.63;95.70;101718.53;5042694;28;20049;-71
2021/07/16 05:35:55;;;;;;;24.27;7.35;;;;;;;15.63;94.93;101724.66;5042977;28;20057;-71
2021/07/16 05:38:25;;;;;;;28.35;8.07;;;;;;;15.73;94.90;101730.53;5044749;28;20052;-72
2021/07/16 05:40:51;;;;;;;25.20;8.13;;;;;;;15.78;94.17;101726.03;5044893;28;20045;-72
2021/07/16 05:43:19;;;;;;;28.73;7.47;;;;;;;15.87;94.63;101730.25;5045170;28;20053;-71
2021/07/16 05:45:45;;;;;;;23.65;7.18;;;;;;;15.84;94.08;101731.16;5047415;28;20056;-73
2021/07/16 05:48:12;;;;;;;25.33;8.07;;;;;;;15.89;92.92;101731.03;5035762;28;20045;-72
2021/07/16 05:50:41;;;;;;;25.42;7.50;;;;;;;15.83;92.28;101734.66;5044550;28;20083;-72
2021/07/16 05:53:08;;;;;;;28.88;9.25;;;;;;;15.87;92.25;101729.38;5039419;28;20530;-72
2021/07/16 05:55:37;;;;;;;27.48;7.35;;;;;;;15.97;93.22;101731.69;5041744;28;20155;-73
2021/07/16 05:58:03;;;;;;;20.85;7.25;;;;;;;16.01;92.18;101743.84;5043755;28;20037;-73
2021/07/16 06:00:32;;;;;;;28.77;8.32;;;;;;;16.04;90.96;101729.78;5041137;28;20118;-71
2021/07/16 06:02:58;;;;;;;19.20;7.40;;;;;;;16.17;91.79;101738.19;5043103;28;20053;-72
2021/07/16 06:05:25;;;;;;;23.77;7.47;;;;;;;16.17;91.37;101741.69;5043998;28;20094;-72
2021/07/16 06:07:51;;;;;;;20.90;7.78;;;;;;;16.28;91.62;101736.13;5046483;28;20048;-72
2021/07/16 06:10:17;;;;;;;22.25;7.00;;;;;;;16.23;90.53;101732.78;5047563;28;20044;-73
2021/07/16 06:12:44;;;;;;;19.35;6.15;;;;;;;16.10;90.37;101734.88;5042075;28;20053;-72
2021/07/16 06:15:12;;;;;;;24.13;6.95;;;;;;;16.06;90.44;101741.09;5039285;28;20040;-72
2021/07/16 06:17:40;;;;;;;21.70;6.88;;;;;;;16.04;91.39;101744.69;5040037;28;20068;-72
2021/07/16 06:20:09;;;;;;;24.73;6.85;;;;;;;16.21;92.60;101736.38;5044336;28;20056;-72
2021/07/16 06:22:36;;;;;;;19.85;6.70;;;;;;;16.25;92.19;101740.63;5045691;28;20107;-72
2021/07/16 06:25:03;;;;;;;18.08;7.72;;;;;;;16.26;91.76;101740.59;5044232;28;20102;-72
2021/07/16 06:27:30;;;;;;;22.58;7.70;;;;;;;16.39;91.58;101737.59;5041083;28;20049;-72
2021/07/16 06:29:56;;;;;;;20.42;8.02;;;;;;;16.39;90.87;101741.13;5043691;28;20048;-73
2021/07/16 06:32:22;;;;;;;30.35;8.50;;;;;;;16.28;91.19;101753.66;5039107;28;20471;-71
2021/07/16 06:34:50;;;;;;;20.92;7.30;;;;;;;16.32;90.99;101745.66;5042892;28;20045;-72
2021/07/16 06:37:17;;;;;;;23.13;7.80;;;;;;;16.25;91.42;101756.38;5044171;28;20506;-74
2021/07/16 06:39:43;;;;;;;24.25;8.18;;;;;;;16.20;91.62;101755.66;5042117;28;20068;-73
2021/07/16 06:42:10;;;;;;;22.10;7.80;;;;;;;16.17;92.01;101756.56;5041526;28;20107;-72
2021/07/16 06:44:36;;;;;;;28.33;9.32;;;;;;;16.23;92.49;101758.16;5041351;28;20640;-72
2021/07/16 06:47:03;;;;;;;23.05;8.52;;;;;;;16.27;92.36;101759.81;5044739;28;20436;-72
2021/07/16 06:49:30;;;;;;;18.90;8.13;;;;;;;16.32;92.85;101764.03;5040732;28;20045;-73
2021/07/16 06:51:59;;;;;;;20.15;7.50;;;;;;;16.41;91.38;101770.81;5047955;28;20194;-73
2021/07/16 06:54:26;;;;;;;30.15;8.05;;;;;;;16.46;91.05;101763.66;5044697;28;20052;-72
2021/07/16 06:56:53;;;;;;;21.85;7.78;;;;;;;16.44;91.03;101768.09;5048949;28;20461;-72
2021/07/16 06:59:20;;;;;;;30.08;8.35;;;;;;;16.45;90.51;101769.81;5039431;28;20068;-72
2021/07/16 07:01:47;;;;;;;28.63;7.57;;;;;;;16.35;89.80;101760.47;5040751;28;20513;-73
2021/07/16 07:04:14;;;;;;;29.58;7.70;;;;;;;16.36;90.49;101770.06;5041034;28;20072;-72
2021/07/16 07:06:40;;;;;;;33.00;7.28;;;;;;;16.56;89.56;101760.78;5043433;28;20048;-72
2021/07/16 07:09:08;;;;;;;30.85;7.75;;;;;;;16.69;88.79;101762.16;5045028;28;20045;-72
2021/07/16 07:11:35;;;;;;;21.88;8.23;;;;;;;16.91;88.85;101761.56;5046620;28;20049;-72
2021/07/16 07:14:01;;;;;;;19.58;6.18;;;;;;;17.12;87.75;101777.63;5040685;28;20053;-73
2021/07/16 07:16:28;;;;;;;22.15;6.22;;;;;;;17.10;84.78;101769.75;5039935;28;20046;-72
2021/07/16 07:18:54;;;;;;;36.60;7.25;;;;;;;17.03;84.11;101774.34;5042892;28;20518;-72
2021/07/16 07:21:21;;;;;;;29.77;6.43;;;;;;;17.09;84.40;101776.81;5043152;28;20045;-74
2021/07/16 07:23:47;;;;;;;22.25;6.03;;;;;;;16.88;84.76;101780.03;5044929;28;20045;-72
2021/07/16 07:26:15;;;;;;;26.08;5.95;;;;;;;16.87;84.79;101786.19;5045357;28;20445;-71
2021/07/16 07:28:41;;;;;;;19.67;6.93;;;;;;;17.06;85.43;101787.41;5038940;28;20049;-72
2021/07/16 07:31:08;;;;;;;22.83;5.65;;;;;;;17.15;84.82;101793.28;5037384;28;20049;-72
2021/07/16 07:33:34;;;;;;;24.05;5.75;;;;;;;17.30;85.15;101797.22;5045708;28;20540;-72
2021/07/16 07:36:01;;;;;;;26.35;4.97;;;;;;;17.05;83.80;101790.94;5044726;28;20490;-71
2021/07/16 07:38:36;;;;;;;25.10;6.30;;;;;;;17.20;84.66;101788.78;5040192;28;20045;-71
2021/07/16 07:41:04;;;;;;;28.40;6.18;;;;;;;17.15;83.25;101790.66;5045461;28;20053;-72
2021/07/16 07:43:31;;;;;;;23.17;6.07;;;;;;;17.12;83.66;101790.78;5042071;28;20091;-72
2021/07/16 07:45:58;;;;;;;24.85;5.82;;;;;;;17.09;83.52;101796.97;5042564;28;20079;-69
2021/07/16 07:48:24;;;;;;;25.27;5.18;;;;;;;17.03;83.50;101797.16;5048737;28;20053;-73
2021/07/16 07:50:51;;;;;;;25.15;6.88;;;;;;;17.13;83.70;101797.72;5044364;28;20045;-72
2021/07/16 07:53:17;;;;;;;23.58;5.55;;;;;;;17.27;83.47;101803.44;5049893;28;20107;-73
2021/07/16 07:55:44;;;;;;;25.42;6.10;;;;;;;17.45;82.23;101809.03;5047106;28;20072;-73
2021/07/16 07:58:11;;;;;;;24.15;5.50;;;;;;;17.48;81.33;101808.97;5045677;28;20049;-72
2021/07/16 08:00:39;;;;;;;24.13;5.80;;;;;;;17.65;81.62;101803.16;5041878;28;20049;-72
2021/07/16 08:03:05;;;;;;;24.70;5.93;;;;;;;17.60;81.69;101816.47;5042765;28;20098;-73
2021/07/16 08:05:32;;;;;;;21.05;5.55;;;;;;;17.65;81.51;101817.16;5040071;28;20506;-69
2021/07/16 08:07:58;;;;;;;23.00;5.30;;;;;;;17.82;81.28;101814.00;5042955;28;20106;-73
2021/07/16 08:10:25;;;;;;;26.08;4.82;;;;;;;17.96;81.02;101818.84;5050117;28;20120;-72
2021/07/16 08:12:52;;;;;;;20.10;4.80;;;;;;;18.03;80.64;101823.00;5045169;28;20049;-73
2021/07/16 08:15:19;;;;;;;25.08;5.80;;;;;;;17.94;80.13;101819.78;5044151;28;20049;-72
2021/07/16 08:17:47;;;;;;;22.63;5.00;;;;;;;17.84;79.89;101824.47;5045898;28;20391;-72
2021/07/16 08:20:13;;;;;;;17.85;5.35;;;;;;;17.81;80.50;101814.91;5046459;28;20075;-72
2021/07/16 08:22:41;;;;;;;28.08;6.45;;;;;;;17.82;80.07;101819.28;5045854;28;20042;-72
2021/07/16 08:25:10;;;;;;;28.67;4.88;;;;;;;17.80;79.74;101818.44;5047481;28;20188;-72
2021/07/16 08:27:37;;;;;;;25.80;5.18;;;;;;;17.88;79.82;101828.75;5043666;28;20138;-72
2021/07/16 08:30:04;;;;;;;21.58;5.53;;;;;;;17.77;78.86;101828.22;5044927;28;20095;-72
2021/07/16 08:32:31;;;;;;;23.60;5.03;;;;;;;17.74;79.74;101834.44;5046668;28;20049;-71
2021/07/16 08:34:58;;;;;;;27.90;5.45;;;;;;;17.82;80.22;101837.69;5042107;28;20108;-74
2021/07/16 08:37:25;;;;;;;28.20;5.45;;;;;;;17.78;79.93;101836.06;5042112;28;20048;-73
2021/07/16 08:39:51;;;;;;;29.45;5.88;;;;;;;17.53;78.94;101833.34;5041333;28;20037;-72
2021/07/16 08:42:19;;;;;;;24.63;4.95;;;;;;;17.67;79.43;101844.31;5042907;28;20051;-72
2021/07/16 08:44:46;;;;;;;27.85;5.07;;;;;;;17.80;78.97;101833.41;5046941;28;20049;-70
2021/07/16 08:47:13;;;;;;;22.45;5.05;;;;;;;18.01;79.29;101839.75;5042416;28;20052;-72
2021/07/16 08:49:40;;;;;;;22.90;5.95;;;;;;;17.90;79.90;101837.44;5049399;28;20048;-72
2021/07/16 08:52:09;;;;;;;25.13;5.28;;;;;;;17.99;79.32;101839.81;5043933;28;20049;-72
2021/07/16 08:54:39;;;;;;;23.45;5.75;;;;;;;17.96;79.25;101841.66;5043092;28;20516;-72
2021/07/16 08:57:06;;;;;;;19.40;6.18;;;;;;;17.92;78.87;101848.75;5045222;28;20045;-71
2021/07/16 08:59:32;;;;;;;20.90;5.95;;;;;;;18.07;78.50;101838.69;5041422;28;20080;-72
2021/07/16 09:02:01;;;;;;;24.73;5.47;;;;;;;18.27;78.12;101844.16;5046104;28;20060;-72
2021/07/16 09:04:28;;;;;;;32.38;6.10;;;;;;;18.39;77.90;101852.56;5044846;28;20426;-72
2021/07/16 09:06:57;;;;;;;23.40;5.20;;;;;;;18.39;77.31;101845.50;5042405;28;20053;-72
2021/07/16 09:09:26;;;;;;;22.42;5.10;;;;;;;18.47;76.65;101853.16;5043290;28;20037;-73
2021/07/16 09:11:54;;;;;;;20.08;5.40;;;;;;;18.48;76.19;101857.50;5048144;28;20479;-72
2021/07/16 09:14:22;;;;;;;19.73;4.38;;;;;;;18.52;75.89;101860.88;5044319;28;20056;-72
2021/07/16 09:17:01;;;;;;;26.65;8.63;;;;;;;18.58;76.58;101865.94;5037220;28;20057;-69
2021/07/16 09:19:36;;;;;;;25.40;7.93;;;;;;;18.61;75.62;101877.25;5045771;28;20053;-68
2021/07/16 09:22:10;;;;;;;27.00;7.20;;;;;;;18.63;75.92;101879.81;5045034;28;20581;-72
2021/07/16 09:24:39;;;;;;;20.30;4.53;;;;;;;18.47;76.72;101871.59;5044665;28;20080;-72
2021/07/16 09:27:30;;;;;;;17.80;4.97;;;;;;;18.52;76.00;101868.78;5040685;28;20427;-72
2021/07/16 09:30:11;;;;;;;21.77;4.57;;;;;;;18.65;75.96;101868.31;5037384;28;20139;-72
2021/07/16 09:32:39;;;;;;;26.23;5.03;;;;;;;18.73;76.24;101869.81;5040891;28;20052;-71
2021/07/16 09:35:07;;;;;;;26.90;5.25;;;;;;;18.92;75.63;101881.41;5043316;28;20053;-72
2021/07/16 09:37:33;;;;;;;24.98;6.10;;;;;;;18.85;75.14;101873.81;5041676;28;20055;-72
2021/07/16 09:40:02;;;;;;;27.30;5.03;;;;;;;18.83;75.44;101881.75;5043543;28;20038;-72
2021/07/16 09:42:28;;;;;;;35.35;5.60;;;;;;;18.72;75.48;101883.91;5050936;28;20103;-72
2021/07/16 09:44:59;;;;;;;27.90;5.65;;;;;;;18.55;74.89;101889.78;5046686;28;20514;-72
2021/07/16 09:47:30;;;;;;;24.90;5.43;;;;;;;18.57;75.98;101899.34;5041600;28;20049;-73
2021/07/16 09:50:07;;;;;;;28.67;6.80;;;;;;;18.47;75.77;101892.66;5031882;28;20108;-72
2021/07/16 09:52:34;;;;;;;20.95;4.53;;;;;;;18.49;76.52;101885.56;5038675;28;20721;-72
2021/07/16 09:55:10;;;;;;;19.83;4.45;;;;;;;18.74;76.56;101892.63;5045178;28;20411;-72
2021/07/16 09:57:37;;;;;;;17.13;4.70;;;;;;;18.87;76.42;101899.19;5036757;28;20042;-72
2021/07/16 10:00:12;;;;;;;33.25;6.30;;;;;;;18.98;75.00;101890.06;5045436;28;20049;-72
2021/07/16 10:02:39;;;;;;;23.67;4.85;;;;;;;18.90;75.16;101892.94;5031696;28;20430;-71
2021/07/16 10:05:07;;;;;;;23.08;4.60;;;;;;;18.83;74.32;101894.06;5038643;28;20466;-72
2021/07/16 10:07:34;;;;;;;25.17;6.07;;;;;;;18.77;73.84;101892.50;5034584;28;20053;-72
2021/07/16 10:10:01;;;;;;;28.00;5.03;;;;;;;18.83;73.85;101892.28;5035904;28;20419;-69
2021/07/16 10:12:30;;;;;;;29.25;6.22;;;;;;;18.87;74.34;101890.41;5036605;28;20045;-71
2021/07/16 10:14:57;;;;;;;28.40;5.15;;;;;;;18.98;74.73;101900.59;5035281;28;20149;-73
2021/07/16 10:17:24;;;;;;;25.15;4.65;;;;;;;18.98;73.17;101900.59;5045353;28;20052;-71
2021/07/16 10:19:51;;;;;;;551.80;331.23;;;;;;;18.97;74.33;101896.25;5034430;28;20055;-72
2021/07/16 10:22:18;;;;;;;33.05;9.98;;;;;;;18.96;72.63;101895.41;5034029;28;20114;-68
2021/07/16 10:24:45;;;;;;;367.50;270.33;;;;;;;19.01;73.90;101897.88;5032080;28;20045;-68
2021/07/16 10:27:13;;;;;;;29.02;5.90;;;;;;;19.01;74.43;101897.88;5036369;28;20057;-71
2021/07/16 10:29:45;;;;;;;22.08;4.93;;;;;;;19.20;73.68;101898.03;5032041;28;20041;-70
2021/07/16 10:32:13;;;;;;;19.75;4.63;;;;;;;19.24;72.84;101903.16;5035822;28;20049;-70
2021/07/16 10:34:40;;;;;;;29.98;4.30;;;;;;;19.35;73.33;101900.13;5036679;28;20049;-69
2021/07/16 10:37:08;;;;;;;29.58;5.63;;;;;;;19.08;73.35;101902.84;5030636;28;20055;-72
2021/07/16 10:39:52;;;;;;;32.53;5.88;;;;;;;18.77;73.83;101903.06;5033067;28;20055;-73
2021/07/16 10:42:41;;;;;;;26.45;5.18;;;;;;;18.71;74.57;101900.66;5032963;28;20084;-72
2021/07/16 10:45:09;;;;;;;25.25;4.80;;;;;;;18.68;74.88;101898.13;5029312;28;20052;-72
2021/07/16 10:47:37;;;;;;;28.77;5.65;;;;;;;18.81;75.02;101902.06;5035510;28;20044;-72
2021/07/16 10:50:05;;;;;;;27.15;4.95;;;;;;;18.98;74.87;101904.09;5034993;28;20321;-70
2021/07/16 10:52:43;;;;;;;25.92;5.30;;;;;;;19.16;73.63;101909.63;5036999;28;20048;-73
2021/07/16 10:55:10;;;;;;;27.35;6.18;;;;;;;19.20;72.63;101911.22;5032231;28;20052;-72
2021/07/16 10:57:41;;;;;;;31.30;7.10;;;;;;;19.29;72.80;101907.41;5036265;28;20049;-72
2021/07/16 11:00:12;;;;;;;31.67;6.90;;;;;;;19.16;72.18;101914.91;5033090;28;20591;-72
2021/07/16 11:02:46;;;;;;;28.10;6.40;;;;;;;19.17;73.20;101906.94;5036328;28;20084;-72
2021/07/16 11:05:50;;;;;;;25.88;4.97;;;;;;;19.15;72.90;101907.91;5041298;28;20063;-69
2021/07/16 11:08:50;;;;;;;32.22;6.05;;;;;;;19.24;73.76;101907.56;5036942;28;20056;-73
2021/07/16 11:11:19;;;;;;;26.40;5.95;;;;;;;19.26;73.13;101906.59;5033999;28;20044;-73
2021/07/16 11:13:46;;;;;;;26.38;5.45;;;;;;;19.27;72.89;101904.81;5024935;28;20122;-70
2021/07/16 11:16:43;;;;;;;31.05;5.25;;;;;;;19.26;71.94;101916.31;5032442;28;20056;-73
2021/07/16 11:19:27;;;;;;;27.85;6.28;;;;;;;19.35;72.31;101909.78;5033397;28;20144;-72
2021/07/16 11:22:07;;;;;;;23.35;5.43;;;;;;;19.36;72.19;101922.06;5034486;28;20061;-73